Terminal Aerodrome Forecast
Issued by NWS

Home | Current Version | Previous Version | Text Only | Print | Product List | Glossary On
Versions: 1 2 3 4 5 6 7 8 9 10 11 12 13
393
FTUS46 KPDT 241720
TAFRDM
TAF
KRDM 241720Z 2418/2518 VRB05KT P6SM SKC
     FM242000 34009KT P6SM FEW070 SCT200
     FM250600 VRB04KT P6SM BKN200
     FM251100 VRB03KT P6SM SCT100 OVC150
     FM251700 34006KT P6SM SCT080 OVC120=

USA.gov is the U.S. government's official web portal to all federal, state and local government web resources and services.